This is the latest recevied weather packets stored in our database for station/object VA3BOO. If no packets are shown the sender has not sent any weather packets the latest 10 day(s).
| Time | Temp. | Humidity | Pressure | Rain* | Wind** | Luminosity | Snow |
|---|---|---|---|---|---|---|---|
| 1777745404 | 8.89° C | 62% | 1012.8 hPa | 0 mm | - | 328 W/m² | - |
| 1777745104 | 8.89° C | 64% | 1012.7 hPa | 0 mm | - | 424 W/m² | - |
| 1777744804 | 8.89° C | 62% | 1012.9 hPa | 0 mm | - | 978 W/m² | - |
| 1777744504 | 9.44° C | 59% | 1012.7 hPa | 0 mm | - | 382 W/m² | - |
| 1777744204 | 9.44° C | 61% | 1012.8 hPa | 0 mm | - | 405 W/m² | - |
| 1777743904 | 9.44° C | 61% | 1012.7 hPa | 0 mm | - | 1025 W/m² | - |
| 1777743604 | 9.44° C | 60% | 1012.7 hPa | 0 mm | - | 444 W/m² | - |
| 1777743304 | 10° C | 60% | 1012.5 hPa | 0 mm | - | 417 W/m² | - |
| 1777743004 | 9.44° C | 61% | 1012.6 hPa | 0 mm | - | 888 W/m² | - |
| 1777742704 | 8.89° C | 63% | 1012.7 hPa | 0 mm | - | 870 W/m² | - |
| 1777742404 | 8.89° C | 62% | 1012.8 hPa | 0 mm | - | 640 W/m² | - |
| 1777742104 | 9.44° C | 61% | 1012.7 hPa | 0 mm | - | 936 W/m² | - |
| 1777741804 | 8.89° C | 63% | 1012.5 hPa | 0 mm | - | 924 W/m² | - |
| 1777741504 | 8.89° C | 65% | 1012.6 hPa | 0 mm | - | 352 W/m² | - |
| 1777741204 | 8.89° C | 64% | 1012.7 hPa | 0 mm | - | 926 W/m² | - |
| 1777740904 | 9.44° C | 63% | 1012.8 hPa | 0 mm | - | 478 W/m² | - |
| 1777740604 | 9.44° C | 64% | 1012.7 hPa | 0 mm | - | 769 W/m² | - |
| 1777740304 | 8.89° C | 66% | 1012.7 hPa | 0 mm | - | 1026 W/m² | - |
| 1777740004 | 8.89° C | 65% | 1012.8 hPa | 0 mm | - | 344 W/m² | - |
| 1777739704 | 8.33° C | 67% | 1012.8 hPa | 0 mm | - | 984 W/m² | - |
| 1777739404 | 8.89° C | 63% | 1012.8 hPa | 0 mm | - | 326 W/m² | - |
| 1777739104 | 8.89° C | 65% | 1012.8 hPa | 0 mm | - | 1046 W/m² | - |
| 1777738804 | 8.89° C | 65% | 1012.9 hPa | 0 mm | - | 966 W/m² | - |
| 1777738504 | 8.33° C | 66% | 1012.8 hPa | 0 mm | - | 579 W/m² | - |
| 1777738204 | 7.78° C | 67% | 1012.7 hPa | 0 mm | - | 424 W/m² | - |
* Rain latest hour (hover to see other rain measurements)
** Current wind speed in m/s (hover to see current wind gust speed)